Main page
METAR-TAF:

METAR-TAF

Airports :

Kuwait City, Kuwait

Kuwait International Airport

latitude: 29-13N, longitude: 047-59E, elevation: 55 m

Current weather observation

The report was made 40 minutes ago, at 03:00 UTC
Wind 4 kt from the East/Southeast
Temperature 29°C
Humidity 29%
Pressure 1008 hPa
Visibility: 0500 m
Clear sky
haze

METAR: OKBK 290300Z 11004KT 0500 R15R/0500N R15L/1000N HZ SKC 29/09 Q1008 NOSIG

Time: 06:40 (03:40 UTC)

Forecast

The report was made 45 minutes ago, at 02:55 UTC
Forecast valid from 29 at 02 UTC to 30 at 06 UTC
Wind 3 kt from variable directions
Visibility: 2000 m
Clear sky
haze
Temporary
from 29 at 02 UTC to 29 at 08 UTC
Visibility: 0200 m
haze
Becoming
from 29 at 10 UTC to 29 at 12 UTC
Visibility: 6000 m

TAF: OKBK 290255Z 2902/3006 VRB03KT 2000 HZ SKC TEMPO 2902/2908 0200 HZ BECMG 2910/2912 6000 NSC

Weather observations and forecasts of more than 4000 airports (METAR and TAF reports).

The available stations are represented by yellow and red dots on the map.

Hover mouse over dot to see the name of the station.

Then click to see weather observations and forecasts.

To change the map : click on the green buttons with a black cross to zoom in, on the green button with a dash to zoom out, or on the green arrows for adjacent maps.


METAR-TAF: